Time;durP1;ratioP1;P1;durP2;ratioP2;P2;SDS_P1;SDS_P2;PMS_P1;PMS_P2;Temp;Humidity;BMP_temperature;BMP_pressure;BME280_temperature;BME280_humidity;BME280_pressure;Samples;Min_cycle;Max_cycle;Signal;HPM_P1;HPM_P2
2022/06/11 00:01:47;;;;;;;0.13;0.13;;;16.50;99.90;;;;;;4975135;28;20035;-67
2022/06/11 00:04:33;;;;;;;0.45;0.35;;;16.30;99.90;;;;;;4975087;28;20030;-67
2022/06/11 00:07:09;;;;;;;0.15;0.15;;;16.30;99.90;;;;;;4976402;28;20761;-67
2022/06/11 00:09:37;;;;;;;0.28;0.28;;;16.20;99.90;;;;;;4957387;28;20053;-66
2022/06/11 00:12:05;;;;;;;0.00;0.00;;;16.30;99.90;;;;;;4991434;28;20027;-67
2022/06/11 00:14:32;;;;;;;0.10;0.10;;;16.20;99.90;;;;;;4974641;28;20030;-67
2022/06/11 00:17:00;;;;;;;0.00;0.00;;;16.20;99.90;;;;;;4991733;28;20081;-66
2022/06/11 00:19:26;;;;;;;0.05;0.05;;;16.20;99.90;;;;;;4974097;28;20493;-67
2022/06/11 00:21:55;;;;;;;0.05;0.05;;;16.20;99.90;;;;;;4991302;28;20030;-67
2022/06/11 00:24:23;;;;;;;3.35;0.50;;;16.30;99.90;;;;;;4991607;28;20037;-65
2022/06/11 00:26:52;;;;;;;0.75;0.43;;;16.40;99.90;;;;;;4974521;28;20041;-65
2022/06/11 00:29:23;;;;;;;0.68;0.68;;;16.60;99.90;;;;;;4973570;28;20089;-67
2022/06/11 00:31:49;;;;;;;0.00;0.00;;;16.60;99.90;;;;;;4991529;28;20057;-66
2022/06/11 00:34:15;;;;;;;4.30;1.08;;;16.70;99.90;;;;;;4973816;28;20466;-66
2022/06/11 00:36:43;;;;;;;0.00;0.00;;;16.70;99.90;;;;;;4974064;28;20034;-66
2022/06/11 00:39:11;;;;;;;0.55;0.55;;;16.60;99.90;;;;;;4990660;28;20118;-67
2022/06/11 00:41:41;;;;;;;0.10;0.10;;;16.40;99.90;;;;;;4974084;28;20397;-67
2022/06/11 00:44:08;;;;;;;0.10;0.10;;;16.30;99.90;;;;;;4991140;28;20034;-67
2022/06/11 00:46:58;;;;;;;0.65;0.63;;;16.20;99.90;;;;;;4991334;28;20045;-65
2022/06/11 00:49:31;;;;;;;0.00;0.00;;;16.10;99.90;;;;;;4990934;28;20030;-67
2022/06/11 00:52:24;;;;;;;0.20;0.20;;;16.10;99.90;;;;;;4991029;28;20038;-67
2022/06/11 00:55:16;;;;;;;0.25;0.20;;;16.00;99.90;;;;;;4991015;28;20078;-67
2022/06/11 00:57:52;;;;;;;0.20;0.20;;;15.80;99.90;;;;;;4991220;28;20070;-67
2022/06/11 01:00:28;;;;;;;0.20;0.20;;;15.80;99.90;;;;;;4990612;28;20030;-68
2022/06/11 01:02:54;;;;;;;0.20;0.20;;;15.80;99.90;;;;;;4990962;28;20080;-67
2022/06/11 01:05:29;;;;;;;0.20;0.20;;;15.80;99.90;;;;;;4983213;28;20053;-67
2022/06/11 01:08:08;;;;;;;0.20;0.20;;;15.80;99.90;;;;;;4965153;28;20165;-67
2022/06/11 01:11:07;;;;;;;0.00;0.00;;;15.70;99.90;;;;;;4972666;28;20029;-67
2022/06/11 01:14:20;;;;;;;0.15;0.15;;;15.60;99.90;;;;;;4975495;28;20495;-67
2022/06/11 01:17:26;;;;;;;0.10;0.10;;;15.60;99.90;;;;;;4972496;28;20046;-67
2022/06/11 01:20:26;;;;;;;0.00;0.00;;;15.80;99.90;;;;;;4970696;28;20042;-67
2022/06/11 01:23:27;;;;;;;0.00;0.00;;;15.70;99.90;;;;;;4973884;28;20031;-67
2022/06/11 01:26:12;;;;;;;0.00;0.00;;;15.60;99.90;;;;;;4994868;28;20538;-67
2022/06/11 01:29:09;;;;;;;0.30;0.10;;;15.60;99.90;;;;;;4978510;28;20390;-67
2022/06/11 01:32:04;;;;;;;0.00;0.00;;;15.60;99.90;;;;;;4994789;28;20106;-67
2022/06/11 01:34:41;;;;;;;0.00;0.00;;;15.50;99.90;;;;;;4975339;28;20050;-67
2022/06/11 01:37:14;;;;;;;0.10;0.10;;;15.50;99.90;;;;;;4994249;28;20034;-67
2022/06/11 01:39:58;;;;;;;0.43;0.43;;;15.40;99.90;;;;;;4961667;28;20587;-66
2022/06/11 01:42:51;;;;;;;0.10;0.10;;;15.30;99.90;;;;;;4994339;28;20022;-66
2022/06/11 01:45:35;;;;;;;0.05;0.05;;;15.30;99.90;;;;;;4977627;28;20177;-67
2022/06/11 01:48:05;;;;;;;0.00;0.00;;;15.20;99.90;;;;;;4994189;28;20038;-67
2022/06/11 01:50:38;;;;;;;0.13;0.13;;;15.20;99.90;;;;;;4993770;28;20046;-67
2022/06/11 01:53:18;;;;;;;0.00;0.00;;;15.20;99.90;;;;;;4986620;23;20046;-77
2022/06/11 01:56:12;;;;;;;0.53;0.37;;;15.20;99.90;;;;;;4957252;28;20063;-76
2022/06/11 01:59:13;;;;;;;0.00;0.00;;;15.10;99.90;;;;;;4954670;29;20793;-76
2022/06/11 02:02:18;;;;;;;0.00;0.00;;;14.90;99.90;;;;;;4955386;29;20032;-77
2022/06/11 02:05:17;;;;;;;0.00;0.00;;;14.80;99.90;;;;;;4955335;29;20043;-76
2022/06/11 02:08:06;;;;;;;2.22;0.63;;;14.80;99.90;;;;;;4953946;29;20110;-76
2022/06/11 02:10:46;;;;;;;0.00;0.00;;;14.80;99.90;;;;;;4954923;29;20038;-76
2022/06/11 02:13:44;;;;;;;0.25;0.25;;;14.80;99.90;;;;;;4937922;29;20496;-76
2022/06/11 02:16:32;;;;;;;0.00;0.00;;;14.80;99.90;;;;;;4985764;28;20069;-76
2022/06/11 02:19:04;;;;;;;0.00;0.00;;;14.70;99.90;;;;;;4976552;28;20042;-76
2022/06/11 02:21:37;;;;;;;0.10;0.10;;;14.60;99.90;;;;;;4977146;28;20493;-76
2022/06/11 02:24:11;;;;;;;0.73;0.70;;;14.70;99.90;;;;;;4976696;28;20031;-76
2022/06/11 02:26:50;;;;;;;0.28;0.20;;;14.60;99.90;;;;;;4976568;28;20384;-76
2022/06/11 02:29:21;;;;;;;0.00;0.00;;;14.70;99.90;;;;;;4976364;28;20453;-76
2022/06/11 02:31:54;;;;;;;0.13;0.13;;;14.50;99.90;;;;;;4993212;28;20027;-76
2022/06/11 02:34:23;;;;;;;0.20;0.20;;;14.60;99.90;;;;;;4993649;28;20148;-76
2022/06/11 02:37:30;;;;;;;0.55;0.45;;;14.50;99.90;;;;;;4976543;28;20031;-77
2022/06/11 02:40:04;;;;;;;0.20;0.20;;;14.50;99.90;;;;;;4975400;28;20066;-77
2022/06/11 02:42:30;;;;;;;0.00;0.00;;;14.40;99.90;;;;;;4976757;28;20064;-77
2022/06/11 02:44:56;;;;;;;0.00;0.00;;;14.30;99.90;;;;;;4976176;28;20033;-77
2022/06/11 02:47:23;;;;;;;0.00;0.00;;;14.20;99.90;;;;;;4993264;28;20026;-76
2022/06/11 02:49:50;;;;;;;0.00;0.00;;;14.20;99.90;;;;;;4975290;28;20049;-77
2022/06/11 02:52:22;;;;;;;0.00;0.00;;;14.30;99.90;;;;;;4975710;28;20052;-76
2022/06/11 02:54:50;;;;;;;0.28;0.28;;;14.30;99.90;;;;;;4976232;28;20038;-76
2022/06/11 02:57:22;;;;;;;0.00;0.00;;;14.30;99.90;;;;;;4993300;28;20403;-76
2022/06/11 02:59:49;;;;;;;0.00;0.00;;;14.30;99.90;;;;;;4992287;28;20030;-76
2022/06/11 03:02:15;;;;;;;0.10;0.10;;;14.40;99.90;;;;;;4993284;28;20073;-77
2022/06/11 03:04:40;;;;;;;4.75;1.33;;;14.20;99.90;;;;;;4959678;28;20445;-77
2022/06/11 03:07:08;;;;;;;0.00;0.00;;;14.20;99.90;;;;;;4993314;28;20034;-76
2022/06/11 03:09:38;;;;;;;0.75;0.30;;;14.20;99.90;;;;;;4974897;28;20539;-76
2022/06/11 03:12:07;;;;;;;0.20;0.20;;;14.20;99.90;;;;;;4975568;28;20045;-76
2022/06/11 03:14:33;;;;;;;0.00;0.00;;;14.10;99.90;;;;;;4972934;28;20034;-76
2022/06/11 03:16:59;;;;;;;0.00;0.00;;;14.10;99.90;;;;;;4973280;28;20483;-76
2022/06/11 03:19:24;;;;;;;0.47;0.45;;;14.20;99.90;;;;;;4972516;28;20034;-76
2022/06/11 03:21:55;;;;;;;16.90;0.35;;;14.20;99.90;;;;;;4956013;28;20062;-77
2022/06/11 03:24:26;;;;;;;0.10;0.10;;;14.10;99.90;;;;;;4956363;28;20062;-76
2022/06/11 03:26:53;;;;;;;0.13;0.05;;;14.10;99.90;;;;;;4955994;28;20059;-77
2022/06/11 03:29:21;;;;;;;3.83;2.05;;;14.10;99.90;;;;;;4955107;28;20041;-77
2022/06/11 03:31:47;;;;;;;0.10;0.10;;;14.10;99.90;;;;;;4973110;28;20023;-76
2022/06/11 03:34:14;;;;;;;0.00;0.00;;;14.00;99.90;;;;;;4955415;28;20027;-76
2022/06/11 03:36:42;;;;;;;0.00;0.00;;;14.00;99.90;;;;;;4955953;28;20031;-77
2022/06/11 03:39:08;;;;;;;0.30;0.30;;;14.10;99.90;;;;;;4971909;28;20023;-76
2022/06/11 03:41:35;;;;;;;0.10;0.10;;;14.20;99.90;;;;;;4972607;28;20045;-76
2022/06/11 03:44:00;;;;;;;0.57;0.57;;;14.30;99.90;;;;;;4970542;28;20035;-76
2022/06/11 03:46:29;;;;;;;0.00;0.00;;;14.20;99.90;;;;;;4972694;28;20110;-76
2022/06/11 03:48:55;;;;;;;0.00;0.00;;;14.10;99.90;;;;;;4971942;28;20387;-76
2022/06/11 03:51:22;;;;;;;0.13;0.13;;;14.20;99.90;;;;;;4955395;28;20057;-75
2022/06/11 03:53:48;;;;;;;0.00;0.00;;;14.30;99.90;;;;;;4955478;28;20569;-76
2022/06/11 03:56:15;;;;;;;0.57;0.45;;;14.50;99.90;;;;;;4972367;28;20195;-77
2022/06/11 03:58:43;;;;;;;0.70;0.30;;;14.30;99.90;;;;;;4971811;28;20031;-74
2022/06/11 04:01:16;;;;;;;4.65;1.17;;;14.50;99.90;;;;;;4955335;28;20031;-74
2022/06/11 04:03:52;;;;;;;0.00;0.00;;;14.50;99.90;;;;;;4955829;28;20027;-74
2022/06/11 04:06:31;;;;;;;0.08;0.08;;;14.40;99.90;;;;;;4972273;28;20058;-74
2022/06/11 04:08:58;;;;;;;0.00;0.00;;;14.00;99.90;;;;;;4955529;28;20027;-73
2022/06/11 04:11:25;;;;;;;0.00;0.00;;;14.00;99.90;;;;;;4972252;28;20122;-74
2022/06/11 04:13:53;;;;;;;0.00;0.00;;;14.20;99.90;;;;;;4939429;28;20038;-73
2022/06/11 04:16:44;;;;;;;0.00;0.00;;;14.20;99.90;;;;;;4955878;28;20026;-73
2022/06/11 04:19:17;;;;;;;1.38;0.57;;;14.30;99.90;;;;;;4974499;28;20053;-76
2022/06/11 04:21:46;;;;;;;0.60;0.60;;;14.30;99.90;;;;;;4974257;28;20093;-73
2022/06/11 04:24:12;;;;;;;1.13;1.02;;;14.50;99.90;;;;;;4974171;28;20443;-73
2022/06/11 04:26:44;;;;;;;0.10;0.10;;;14.60;99.90;;;;;;4974373;28;20038;-74
2022/06/11 04:29:12;;;;;;;;;;;14.60;99.90;;;;;;4974184;28;20097;-74
2022/06/11 04:31:38;;;;;;;0.00;0.00;;;14.70;99.90;;;;;;4991447;28;20272;-74
2022/06/11 04:34:04;;;;;;;0.00;0.00;;;14.90;99.90;;;;;;4991288;28;20106;-74
2022/06/11 04:36:34;;;;;;;0.10;0.10;;;15.10;99.90;;;;;;4974119;28;20030;-74
2022/06/11 04:38:59;;;;;;;0.45;0.28;;;15.30;99.90;;;;;;4973427;28;20029;-74
2022/06/11 04:41:27;;;;;;;1.00;0.47;;;15.50;99.90;;;;;;4973916;28;20034;-74
2022/06/11 04:43:53;;;;;;;1.95;1.02;;;15.70;99.90;;;;;;4991790;28;20058;-74
2022/06/11 04:46:20;;;;;;;0.00;0.00;;;15.60;99.90;;;;;;4973785;28;20034;-74
2022/06/11 04:48:47;;;;;;;0.20;0.20;;;15.80;99.90;;;;;;4989122;28;20566;-75
2022/06/11 04:51:15;;;;;;;0.38;0.38;;;16.10;99.90;;;;;;4973722;28;20027;-74
2022/06/11 04:53:42;;;;;;;0.98;0.98;;;16.10;99.90;;;;;;4974048;28;20136;-75
2022/06/11 04:56:11;;;;;;;1.08;0.77;;;16.20;99.90;;;;;;4973556;28;20151;-75
2022/06/11 04:58:37;;;;;;;0.20;0.20;;;16.40;99.90;;;;;;4973263;28;20430;-74
2022/06/11 05:01:03;;;;;;;0.10;0.10;;;16.60;99.90;;;;;;4991188;28;20030;-74
2022/06/11 05:03:29;;;;;;;0.38;0.38;;;16.70;99.90;;;;;;4990835;28;20038;-74
2022/06/11 05:05:55;;;;;;;0.52;0.52;;;16.70;99.90;;;;;;4990773;28;20364;-75
2022/06/11 05:08:20;;;;;;;2.30;0.85;;;16.90;99.90;;;;;;4973665;28;20118;-75
2022/06/11 05:10:46;;;;;;;0.88;0.50;;;16.90;99.90;;;;;;4990290;28;20372;-75
2022/06/11 05:13:12;;;;;;;0.70;0.55;;;16.90;99.90;;;;;;4973300;28;20084;-73
2022/06/11 05:15:43;;;;;;;1.35;1.25;;;16.80;99.90;;;;;;4958674;28;20035;-74
2022/06/11 05:18:10;;;;;;;0.88;0.43;;;16.90;99.90;;;;;;4935348;29;20031;-75
2022/06/11 05:20:36;;;;;;;1.35;1.15;;;16.80;99.90;;;;;;4951427;29;20042;-75
2022/06/11 05:23:02;;;;;;;0.10;0.10;;;16.80;99.90;;;;;;4935126;29;20023;-74
2022/06/11 05:25:29;;;;;;;0.45;0.30;;;17.00;99.90;;;;;;4952144;29;20035;-73
2022/06/11 05:27:55;;;;;;;0.00;0.00;;;17.00;99.90;;;;;;4934911;29;20038;-74
2022/06/11 05:30:30;;;;;;;0.45;0.45;;;17.10;99.90;;;;;;4951308;29;20031;-73
2022/06/11 05:32:57;;;;;;;0.17;0.17;;;17.30;99.90;;;;;;4935092;29;20035;-74
2022/06/11 05:35:27;;;;;;;0.47;0.47;;;17.50;99.90;;;;;;4935007;29;20042;-79
2022/06/11 05:37:56;;;;;;;0.00;0.00;;;17.50;99.90;;;;;;4952112;29;20038;-79
2022/06/11 05:40:28;;;;;;;0.88;0.73;;;17.60;99.90;;;;;;4951329;29;20031;-78
2022/06/11 05:42:58;;;;;;;0.75;0.47;;;17.80;99.90;;;;;;4935105;29;20034;-79
2022/06/11 05:45:55;;;;;;;0.45;0.45;;;17.80;99.90;;;;;;4918986;29;20135;-80
2022/06/11 05:48:27;;;;;;;0.10;0.10;;;17.90;99.90;;;;;;4935562;29;20035;-78
2022/06/11 05:50:56;;;;;;;3.13;0.82;;;17.90;99.90;;;;;;4934872;29;20031;-78
2022/06/11 05:53:25;;;;;;;4.35;0.98;;;17.90;99.90;;;;;;4934886;29;20486;-79
2022/06/11 05:55:52;;;;;;;0.10;0.10;;;18.00;99.90;;;;;;4934794;29;20496;-79
2022/06/11 05:58:31;;;;;;;0.00;0.00;;;18.00;99.90;;;;;;4951512;29;20105;-78
2022/06/11 06:00:58;;;;;;;1.65;0.40;;;18.10;99.90;;;;;;4938611;28;20030;-79
2022/06/11 06:03:24;;;;;;;0.15;0.13;;;18.20;99.90;;;;;;4953916;28;20053;-78
2022/06/11 06:05:50;;;;;;;0.65;0.65;;;18.00;99.90;;;;;;4954434;28;20030;-78
2022/06/11 06:08:16;;;;;;;0.00;0.00;;;18.20;99.90;;;;;;4974101;28;20031;-79
2022/06/11 06:10:42;;;;;;;2.13;1.02;;;18.20;99.90;;;;;;4953325;28;20023;-78
2022/06/11 06:15:53;;;;;;;0.30;0.30;;;18.30;99.90;;;;;;4978368;28;20139;-77
2022/06/11 06:18:20;;;;;;;0.00;0.00;;;18.30;99.90;;;;;;4958617;28;20027;-78
2022/06/11 06:20:47;;;;;;;0.20;0.20;;;18.50;99.90;;;;;;4956364;28;20247;-78
2022/06/11 06:23:14;;;;;;;0.30;0.25;;;18.60;99.90;;;;;;4956843;28;20400;-76
2022/06/11 06:25:40;;;;;;;1.02;0.38;;;18.60;99.90;;;;;;4956763;28;20031;-79
2022/06/11 06:28:07;;;;;;;0.10;0.10;;;18.60;99.90;;;;;;4974458;28;20117;-77
2022/06/11 06:30:33;;;;;;;0.28;0.28;;;18.80;99.90;;;;;;4956157;28;20666;-79
2022/06/11 06:32:59;;;;;;;0.38;0.17;;;18.90;99.90;;;;;;4974124;28;20034;-77
2022/06/11 06:35:25;;;;;;;0.20;0.20;;;18.80;99.90;;;;;;4956573;28;20044;-76
2022/06/11 06:37:50;;;;;;;2.38;0.70;;;18.60;99.90;;;;;;4974003;28;20039;-80
2022/06/11 06:40:16;;;;;;;6.43;0.80;;;18.50;99.90;;;;;;4955938;28;20042;-79
2022/06/11 06:42:42;;;;;;;0.00;0.00;;;18.80;99.90;;;;;;4974244;28;20027;-79
2022/06/11 06:45:08;;;;;;;0.10;0.10;;;18.90;99.90;;;;;;4973958;28;20034;-82
2022/06/11 06:47:34;;;;;;;0.32;0.32;;;19.00;99.90;;;;;;4956638;28;20038;-78
2022/06/11 06:50:00;;;;;;;0.05;0.05;;;19.00;99.90;;;;;;4973049;28;20042;-81
2022/06/11 06:52:26;;;;;;;0.10;0.10;;;19.10;99.90;;;;;;4972317;28;20452;-80
2022/06/11 06:54:52;;;;;;;0.08;0.08;;;19.10;99.90;;;;;;4955959;28;20042;-78
2022/06/11 06:57:17;;;;;;;1.23;0.93;;;19.20;99.90;;;;;;4972371;28;20030;-78
2022/06/11 06:59:43;;;;;;;1.77;0.40;;;19.30;99.90;;;;;;4972581;28;20045;-77
2022/06/11 07:02:10;;;;;;;0.25;0.25;;;19.50;99.90;;;;;;4956011;28;20071;-79
2022/06/11 07:04:37;;;;;;;1.73;0.75;;;19.60;99.90;;;;;;4955964;28;20407;-80
2022/06/11 07:07:04;;;;;;;0.90;0.28;;;19.70;99.90;;;;;;4973584;28;20038;-79
2022/06/11 07:09:30;;;;;;;0.00;0.00;;;19.80;99.90;;;;;;4955082;28;20043;-77
2022/06/11 07:11:56;;;;;;;6.03;1.40;;;19.80;99.90;;;;;;4973128;28;20058;-77
2022/06/11 07:14:22;;;;;;;0.52;0.38;;;19.70;99.90;;;;;;4972837;28;20053;-78
2022/06/11 07:17:02;;;;;;;1.52;0.75;;;19.70;99.90;;;;;;4973238;28;20471;-78
2022/06/11 07:19:45;;;;;;;0.00;0.00;;;19.80;99.90;;;;;;4954604;28;20034;-79
2022/06/11 07:22:36;;;;;;;0.28;0.28;;;19.90;99.90;;;;;;4957733;28;20486;-79
2022/06/11 07:25:04;;;;;;;;;;;19.90;99.90;;;;;;4973309;28;20038;-75
2022/06/11 07:27:34;;;;;;;0.10;0.10;;;19.90;99.90;;;;;;4973316;28;19918;-77
2022/06/11 07:30:08;;;;;;;1.42;1.10;;;19.90;99.90;;;;;;4972078;28;20525;-80
2022/06/11 07:32:35;;;;;;;0.40;0.40;;;20.00;99.90;;;;;;4973288;28;20042;-80
2022/06/11 07:35:13;;;;;;;0.25;0.22;;;20.10;99.90;;;;;;4939928;28;20038;-80
2022/06/11 07:37:40;;;;;;;0.95;0.85;;;20.00;99.90;;;;;;4955729;28;20031;-81
2022/06/11 07:40:08;;;;;;;0.55;0.28;;;19.80;99.90;;;;;;4939416;28;20395;-80
2022/06/11 07:42:33;;;;;;;1.17;0.68;;;19.80;99.90;;;;;;4955655;28;20154;-80
2022/06/11 07:44:59;;;;;;;0.25;0.25;;;19.90;99.90;;;;;;4973025;28;20494;-80
2022/06/11 07:50:11;;;;;;;0.50;0.30;;;20.10;99.90;;;;;;4957397;28;20362;-79
2022/06/11 07:52:39;;;;;;;0.20;0.20;;;20.20;99.90;;;;;;4975323;23;20419;-69
2022/06/11 07:55:06;;;;;;;0.10;0.10;;;20.30;99.90;;;;;;4941118;29;20040;-69
2022/06/11 07:57:33;;;;;;;0.10;0.10;;;20.10;99.90;;;;;;4932629;29;20608;-64
2022/06/11 07:59:58;;;;;;;0.10;0.10;;;20.20;99.90;;;;;;4931782;29;20496;-68
2022/06/11 08:02:25;;;;;;;0.20;0.20;;;20.20;99.90;;;;;;4925182;29;20083;-67
2022/06/11 08:04:51;;;;;;;0.10;0.10;;;20.40;99.90;;;;;;4914882;29;20447;-67
2022/06/11 08:07:18;;;;;;;0.15;0.15;;;20.50;99.90;;;;;;4915089;29;20493;-67
2022/06/11 08:09:44;;;;;;;1.65;0.40;;;20.60;99.90;;;;;;4915690;29;20066;-67
2022/06/11 08:12:10;;;;;;;0.00;0.00;;;20.70;99.90;;;;;;4935321;29;20067;-67
2022/06/11 08:14:36;;;;;;;0.38;0.10;;;21.00;99.90;;;;;;4935354;29;20399;-68
2022/06/11 08:17:02;;;;;;;6.38;1.20;;;21.20;99.90;;;;;;4952903;29;20102;-67
2022/06/11 08:19:28;;;;;;;0.10;0.10;;;21.30;99.90;;;;;;4949569;29;20115;-67
2022/06/11 08:21:56;;;;;;;0.10;0.10;;;21.40;99.90;;;;;;4932947;29;20028;-67
2022/06/11 08:24:22;;;;;;;0.30;0.20;;;21.50;99.90;;;;;;4916966;29;20023;-68
2022/06/11 08:26:48;;;;;;;0.00;0.00;;;21.50;99.90;;;;;;4933608;29;20062;-67
2022/06/11 08:29:14;;;;;;;0.43;0.20;;;21.70;99.90;;;;;;4932379;29;20134;-67
2022/06/11 08:31:40;;;;;;;0.95;0.75;;;21.80;99.90;;;;;;4933423;29;20034;-67
2022/06/11 08:34:06;;;;;;;0.65;0.30;;;21.90;99.90;;;;;;4916583;29;20036;-69
2022/06/11 08:36:32;;;;;;;0.32;0.17;;;22.10;99.90;;;;;;4933423;29;20059;-70
2022/06/11 08:38:58;;;;;;;12.88;2.38;;;22.20;99.90;;;;;;4915840;29;20027;-70
2022/06/11 08:41:33;;;;;;;0.00;0.00;;;22.40;99.90;;;;;;4946983;29;20464;-69
2022/06/11 08:44:04;;;;;;;0.03;0.03;;;22.60;99.90;;;;;;4935835;29;20042;-70
2022/06/11 08:46:34;;;;;;;0.00;0.00;;;22.50;99.90;;;;;;4935654;29;20519;-68
2022/06/11 08:49:32;;;;;;;10.63;1.00;;;22.50;99.90;;;;;;4918874;29;20043;-71
2022/06/11 08:52:27;;;;;;;0.08;0.08;;;22.70;99.90;;;;;;4952257;28;20388;-71
2022/06/11 08:54:54;;;;;;;0.10;0.10;;;23.00;99.60;;;;;;4935197;29;20031;-68
2022/06/11 08:58:00;;;;;;;9.82;0.57;;;23.00;98.60;;;;;;4935219;29;20063;-68
2022/06/11 09:00:57;;;;;;;0.00;0.00;;;22.90;98.40;;;;;;4951392;29;20031;-66
2022/06/11 09:03:59;;;;;;;0.28;0.20;;;23.10;98.30;;;;;;4944393;28;20050;-65
2022/06/11 09:06:53;;;;;;;0.50;0.30;;;23.20;98.40;;;;;;4952129;29;20522;-67
2022/06/11 09:10:01;;;;;;;0.10;0.10;;;23.40;98.70;;;;;;4951456;29;20122;-68
2022/06/11 09:12:51;;;;;;;0.00;0.00;;;23.50;97.20;;;;;;4898246;29;20036;-66
2022/06/11 09:15:45;;;;;;;0.00;0.00;;;23.70;96.10;;;;;;4898033;29;20039;-68
2022/06/11 09:18:51;;;;;;;0.13;0.13;;;23.90;95.60;;;;;;4881569;29;20040;-64
2022/06/11 09:21:53;;;;;;;0.45;0.22;;;23.70;95.50;;;;;;4913215;29;20090;-66
2022/06/11 09:24:49;;;;;;;0.70;0.45;;;24.00;95.30;;;;;;4897054;29;20155;-65
2022/06/11 09:27:23;;;;;;;0.10;0.10;;;24.10;93.50;;;;;;4913723;29;20036;-68
2022/06/11 09:30:10;;;;;;;1.10;0.50;;;24.10;93.80;;;;;;4913507;29;20028;-66
2022/06/11 09:33:13;;;;;;;3.35;1.17;;;24.20;93.90;;;;;;4897109;29;20067;-65
2022/06/11 09:36:01;;;;;;;0.00;0.00;;;24.10;93.40;;;;;;4861598;29;20055;-66
2022/06/11 09:39:17;;;;;;;0.10;0.00;;;24.40;91.10;;;;;;4897600;29;20036;-67
2022/06/11 09:41:59;;;;;;;0.00;0.00;;;24.60;90.60;;;;;;4900637;29;20103;-67
2022/06/11 09:44:44;;;;;;;1.08;0.30;;;24.60;90.00;;;;;;4936497;29;20508;-66
2022/06/11 09:47:42;;;;;;;0.47;0.43;;;24.70;90.30;;;;;;4920069;29;20039;-72
2022/06/11 09:50:40;;;;;;;0.95;0.57;;;24.90;90.80;;;;;;4935862;29;20503;-72
2022/06/11 09:53:21;;;;;;;0.00;0.00;;;24.90;90.40;;;;;;4919742;29;20043;-72
2022/06/11 09:56:07;;;;;;;0.10;0.10;;;25.10;89.40;;;;;;4935968;29;20479;-72
2022/06/11 09:59:09;;;;;;;1.15;0.20;;;25.00;89.80;;;;;;4935016;29;20516;-72
2022/06/11 10:02:01;;;;;;;13.65;0.52;;;25.30;87.30;;;;;;4921376;29;20606;-71
2022/06/11 10:04:41;;;;;;;0.10;0.00;;;25.50;86.90;;;;;;4920136;29;20035;-71
2022/06/11 10:07:16;;;;;;;0.00;0.00;;;25.40;86.50;;;;;;4873695;29;20044;-71
2022/06/11 10:09:54;;;;;;;0.13;0.10;;;25.30;86.40;;;;;;4918637;29;20024;-71
2022/06/11 10:12:52;;;;;;;0.50;0.45;;;25.10;87.30;;;;;;4920261;29;20032;-71
2022/06/11 10:15:31;;;;;;;0.00;0.00;;;25.00;86.60;;;;;;4919239;29;20040;-72
2022/06/11 10:18:11;;;;;;;0.45;0.28;;;25.10;87.00;;;;;;4919146;29;20420;-72
2022/06/11 10:20:46;;;;;;;0.10;0.10;;;25.10;87.30;;;;;;4919442;29;20111;-71
2022/06/11 10:23:43;;;;;;;0.00;0.00;;;25.00;87.90;;;;;;4919693;29;20024;-71
2022/06/11 10:26:22;;;;;;;0.43;0.43;;;25.10;88.40;;;;;;4935666;29;20531;-71
2022/06/11 10:29:15;;;;;;;0.15;0.10;;;25.50;87.70;;;;;;4918904;29;20036;-72
2022/06/11 10:31:45;;;;;;;0.08;0.08;;;25.70;85.20;;;;;;4918373;29;20083;-71
2022/06/11 10:34:20;;;;;;;0.22;0.22;;;25.80;84.80;;;;;;4935761;29;20086;-72
2022/06/11 10:37:15;;;;;;;0.10;0.10;;;25.80;84.70;;;;;;4935571;29;20083;-71
2022/06/11 10:40:01;;;;;;;0.28;0.28;;;25.70;84.10;;;;;;4920228;29;20503;-72
2022/06/11 10:43:08;;;;;;;0.38;0.35;;;26.00;83.30;;;;;;4918512;29;20075;-72
2022/06/11 10:45:37;;;;;;;0.10;0.10;;;26.20;83.80;;;;;;4935513;29;20046;-72
2022/06/11 10:48:14;;;;;;;0.15;0.15;;;26.20;83.10;;;;;;4935054;29;20392;-71
2022/06/11 10:50:40;;;;;;;5.97;0.70;;;26.20;82.20;;;;;;4918399;29;20679;-71
2022/06/11 10:53:35;;;;;;;0.55;0.55;;;26.20;83.10;;;;;;4934756;29;20036;-71
2022/06/11 10:56:15;;;;;;;0.03;0.03;;;25.70;83.20;;;;;;4919802;29;20031;-71
2022/06/11 10:58:52;;;;;;;;;;;25.90;82.40;;;;;;4933606;29;20755;-71
2022/06/11 11:01:47;;;;;;;0.00;0.00;;;25.60;83.80;;;;;;4919456;29;19917;-71
2022/06/11 11:04:35;;;;;;;0.68;0.43;;;26.40;84.00;;;;;;4920221;29;20481;-70
2022/06/11 11:07:24;;;;;;;0.45;0.40;;;27.00;82.10;;;;;;4935003;29;20119;-71
2022/06/11 11:09:50;;;;;;;0.35;0.15;;;27.20;78.90;;;;;;4935745;29;20444;-71
2022/06/11 11:12:25;;;;;;;0.00;0.00;;;27.10;79.50;;;;;;4953734;28;20476;-71
2022/06/11 11:15:14;;;;;;;0.30;0.30;;;27.40;79.70;;;;;;4937016;29;20114;-71
2022/06/11 11:17:55;;;;;;;0.03;0.03;;;27.00;78.70;;;;;;4937355;29;20042;-71
2022/06/11 11:20:42;;;;;;;1.02;0.70;;;26.60;78.00;;;;;;4937611;29;20154;-72
2022/06/11 11:23:41;;;;;;;1.45;1.13;;;26.60;80.40;;;;;;4937342;29;20114;-71
2022/06/11 11:26:19;;;;;;;0.00;0.00;;;26.60;78.40;;;;;;4939226;29;20027;-71
2022/06/11 11:29:25;;;;;;;0.00;0.00;;;26.80;78.20;;;;;;4936693;29;20035;-70
2022/06/11 11:32:02;;;;;;;1.30;0.65;;;27.20;78.00;;;;;;4928278;28;20488;-68
2022/06/11 11:34:41;;;;;;;0.05;0.05;;;27.60;77.50;;;;;;4953556;28;20043;-69
2022/06/11 11:37:15;;;;;;;0.00;0.00;;;27.50;77.60;;;;;;4937589;29;20036;-69
2022/06/11 11:39:59;;;;;;;0.08;0.00;;;27.70;77.60;;;;;;4952951;29;20035;-70
2022/06/11 11:42:33;;;;;;;0.50;0.50;;;27.60;76.60;;;;;;4926871;29;20034;-70
2022/06/11 11:45:27;;;;;;;0.10;0.10;;;27.50;75.50;;;;;;4912585;29;20543;-71
2022/06/11 11:48:05;;;;;;;0.00;0.00;;;27.00;76.30;;;;;;4934319;29;20046;-71
2022/06/11 11:50:39;;;;;;;0.10;0.00;;;27.30;76.10;;;;;;4909446;29;20042;-70
2022/06/11 11:53:35;;;;;;;0.00;0.00;;;27.10;77.00;;;;;;4908263;29;20086;-70
2022/06/11 11:56:20;;;;;;;0.00;0.00;;;27.10;76.70;;;;;;4914538;29;20036;-69
2022/06/11 11:58:55;;;;;;;0.13;0.13;;;26.90;77.40;;;;;;4909823;29;20051;-70
2022/06/11 12:01:24;;;;;;;0.47;0.30;;;27.20;78.10;;;;;;4893347;29;20036;-68
2022/06/11 12:04:00;;;;;;;0.40;0.08;;;27.50;76.40;;;;;;4911304;29;20066;-67
2022/06/11 12:06:40;;;;;;;0.00;0.00;;;27.10;75.80;;;;;;4933683;29;20043;-67
2022/06/11 12:09:46;;;;;;;0.10;0.10;;;27.30;75.40;;;;;;4933514;29;20028;-68
2022/06/11 12:12:26;;;;;;;0.00;0.00;;;26.80;75.30;;;;;;4913970;29;20044;-67
2022/06/11 12:15:29;;;;;;;0.00;0.00;;;26.80;76.10;;;;;;4914828;29;20509;-68
2022/06/11 12:18:13;;;;;;;0.00;0.00;;;27.10;76.70;;;;;;4930554;29;20040;-68
2022/06/11 12:21:04;;;;;;;0.13;0.13;;;27.10;75.70;;;;;;4915783;29;20036;-68
2022/06/11 12:23:48;;;;;;;0.13;0.10;;;27.20;77.90;;;;;;4916956;29;20028;-68
2022/06/11 12:26:28;;;;;;;0.00;0.00;;;27.80;76.30;;;;;;4933777;29;20551;-70
2022/06/11 12:29:23;;;;;;;0.08;0.08;;;28.60;75.30;;;;;;4915906;29;20120;-69
2022/06/11 12:31:49;;;;;;;0.57;0.47;;;29.20;74.60;;;;;;4918121;29;20035;-68
2022/06/11 12:34:21;;;;;;;0.08;0.08;;;29.50;73.50;;;;;;4933683;29;20477;-68
2022/06/11 12:37:32;;;;;;;0.25;0.17;;;29.70;72.40;;;;;;4916767;29;20038;-68
2022/06/11 12:40:13;;;;;;;0.43;0.25;;;29.70;71.80;;;;;;4889675;29;20047;-68
2022/06/11 12:42:59;;;;;;;;;;;29.90;69.70;;;;;;4952737;28;20426;-69
2022/06/11 12:45:40;;;;;;;0.00;0.00;;;29.80;69.30;;;;;;4937262;29;19964;-68
2022/06/11 12:48:30;;;;;;;0.00;0.00;;;29.70;70.30;;;;;;4936017;29;20369;-70
2022/06/11 12:51:17;;;;;;;0.15;0.10;;;29.60;69.40;;;;;;4952210;29;20502;-70
2022/06/11 12:54:07;;;;;;;0.75;0.65;;;30.10;69.10;;;;;;4934726;29;20063;-69
2022/06/11 12:57:10;;;;;;;0.38;0.20;;;30.40;69.40;;;;;;4952537;29;20028;-69
2022/06/11 13:00:25;;;;;;;0.00;0.00;;;29.70;69.00;;;;;;4936256;29;20141;-69
2022/06/11 13:03:16;;;;;;;0.30;0.30;;;30.40;68.40;;;;;;4899488;29;20037;-69
2022/06/11 13:06:06;;;;;;;0.00;0.00;;;29.80;68.20;;;;;;4934936;29;20023;-69
2022/06/11 13:08:56;;;;;;;0.00;0.00;;;30.30;68.80;;;;;;4951397;29;20043;-69
2022/06/11 13:11:39;;;;;;;0.20;0.20;;;30.40;67.70;;;;;;4934806;29;20106;-70
2022/06/11 13:14:14;;;;;;;0.00;0.00;;;31.10;69.30;;;;;;4952013;29;20034;-70
2022/06/11 13:17:17;;;;;;;2.25;0.70;;;30.90;66.60;;;;;;4954077;28;20035;-69
2022/06/11 13:20:12;;;;;;;0.10;0.10;;;31.10;66.50;;;;;;4938195;29;20118;-69
2022/06/11 13:22:46;;;;;;;0.10;0.10;;;32.00;65.60;;;;;;4938908;29;20032;-68
2022/06/11 13:25:37;;;;;;;0.05;0.00;;;32.20;64.70;;;;;;4955916;29;20059;-70
2022/06/11 13:28:25;;;;;;;;;;;32.20;64.90;;;;;;4956550;29;20035;-70
2022/06/11 13:31:39;;;;;;;1.48;1.38;;;30.60;65.40;;;;;;4939847;29;19915;-70
2022/06/11 13:34:41;;;;;;;0.08;0.08;;;30.50;65.60;;;;;;4862897;29;20502;-70
2022/06/11 13:37:55;;;;;;;0.00;0.00;;;31.10;64.10;;;;;;4955669;29;20082;-69
2022/06/11 13:40:48;;;;;;;0.70;0.70;;;31.90;63.00;;;;;;4954859;29;20035;-67
2022/06/11 13:43:35;;;;;;;0.13;0.05;;;32.30;63.00;;;;;;4939160;29;20162;-69
2022/06/11 13:46:12;;;;;;;0.45;0.10;;;32.60;62.30;;;;;;4955384;29;20042;-69